Impacts TAF Board INFO
FOR SITUATIONAL AWARENESS. NOT TO BE USED FOR FLIGHT PLANNING PURPOSES.
IDs:

KCVG - Cincinnati Intl, KY, US

Issued at 0342 UTC 21 Jan 2018
Updated at 0439 UTC 21 Jan 2018
Potential Impact None Slight Moderate High
Time0410Z 21/05Z 21/06Z 21/07Z 21/08Z 21/09Z 21/10Z 21/11Z 21/12Z 21/13Z 21/14Z 21/15Z 21/16Z 21/17Z>>
Type OBS PRVL PRVL PRVL PRVL PRVL PRVL PRVL PRVL PRVL PRVL PRVL PRVL PRVL
VIS 10 >6 >6 >6 >6 >6 >6 >6 >6 >6 >6 >6 >6 5
CIG 25 15 18 18 18 18 18 18 18 18 18 18 18 8
Cover OVC OVC OVC OVC OVC OVC OVC OVC OVC OVC OVC OVC OVC OVC
FltCat MVFR MVFR MVFR MVFR MVFR MVFR MVFR MVFR MVFR MVFR MVFR MVFR MVFR IFR
WX -- -- VCSH VCSH VCSH VCSH VCSH VCSH VCSH VCSH VCSH VCSH VCSH BR VCSH
WDir 190 200 200 200 200 200 200 200 200 200 200 200 200 200
WSpd 3 7 7 7 7 7 7 7 7 7 7 7 7 10
WGst -- -- -- -- -- -- -- -- -- -- -- -- -- --

Raw TAF
KCVG 210342Z 2104/2206 20007KT P6SM OVC015
  FM210600 20007KT P6SM VCSH OVC018
  FM211700 20010KT 5SM BR VCSH OVC008
  FM212300 17006KT 5SM BR OVC014
  FM220300 17006KT P6SM BKN035


Raw METAR
KCVG 210410Z 19003KT 10SM SCT019 OVC025 07/07 A3009 RMK AO2 T00720067 $
KCVG 210352Z 18005KT 10SM BKN013 OVC019 07/07 A3010 RMK AO2 SLP193 T00720067 $
KCVG 210252Z 20004KT 10SM BKN011 OVC013 07/06 A3010 RMK AO2 RAB26E35 SLP193 P0000 60000 T00670061 50001 $
KCVG 210152Z 20006KT 6SM BR SCT010 BKN011 OVC013 07/06 A3011 RMK AO2 SLP199 T00670061 $

METAR Board
Radar Display
Forecast Discussion

FOR SITUATIONAL AWARENESS. NOT TO BE USED FOR FLIGHT PLANNING PURPOSES.